sensor_id;sensor_type;location;lat;lon;timestamp;temperature;humidity
71237;DHT22;58984;51.960;5.582;2023-06-14T00:00:12;26.80;37.20
71237;DHT22;58984;51.960;5.582;2023-06-14T00:02:41;26.80;37.20
71237;DHT22;58984;51.960;5.582;2023-06-14T00:05:09;26.80;37.40
71237;DHT22;58984;51.960;5.582;2023-06-14T00:07:41;26.70;37.30
71237;DHT22;58984;51.960;5.582;2023-06-14T00:10:11;26.70;37.40
71237;DHT22;58984;51.960;5.582;2023-06-14T00:12:37;26.70;37.40
71237;DHT22;58984;51.960;5.582;2023-06-14T00:15:03;26.70;37.50
71237;DHT22;58984;51.960;5.582;2023-06-14T00:17:29;26.70;37.50
71237;DHT22;58984;51.960;5.582;2023-06-14T00:19:59;26.60;37.50
71237;DHT22;58984;51.960;5.582;2023-06-14T00:22:25;26.60;37.50
71237;DHT22;58984;51.960;5.582;2023-06-14T00:24:51;26.60;37.50
71237;DHT22;58984;51.960;5.582;2023-06-14T00:27:17;26.60;37.50
71237;DHT22;58984;51.960;5.582;2023-06-14T00:29:42;26.60;37.60
71237;DHT22;58984;51.960;5.582;2023-06-14T00:32:08;26.50;37.60
71237;DHT22;58984;51.960;5.582;2023-06-14T00:34:34;26.50;37.60
71237;DHT22;58984;51.960;5.582;2023-06-14T00:37:00;26.50;37.60
71237;DHT22;58984;51.960;5.582;2023-06-14T00:39:25;26.50;37.60
71237;DHT22;58984;51.960;5.582;2023-06-14T00:41:51;26.50;37.70
71237;DHT22;58984;51.960;5.582;2023-06-14T00:44:17;26.50;37.70
71237;DHT22;58984;51.960;5.582;2023-06-14T00:46:45;26.40;37.70
71237;DHT22;58984;51.960;5.582;2023-06-14T00:49:12;26.40;37.80
71237;DHT22;58984;51.960;5.582;2023-06-14T00:51:38;26.40;37.80
71237;DHT22;58984;51.960;5.582;2023-06-14T00:54:04;26.40;37.80
71237;DHT22;58984;51.960;5.582;2023-06-14T00:56:30;26.40;37.90
71237;DHT22;58984;51.960;5.582;2023-06-14T00:58:56;26.30;37.80
71237;DHT22;58984;51.960;5.582;2023-06-14T01:01:23;26.30;37.90
71237;DHT22;58984;51.960;5.582;2023-06-14T01:03:49;26.30;37.90
71237;DHT22;58984;51.960;5.582;2023-06-14T01:09:03;26.30;38.00
71237;DHT22;58984;51.960;5.582;2023-06-14T01:11:36;26.30;38.00
71237;DHT22;58984;51.960;5.582;2023-06-14T01:14:03;26.20;37.90
71237;DHT22;58984;51.960;5.582;2023-06-14T01:16:29;26.20;38.00
71237;DHT22;58984;51.960;5.582;2023-06-14T01:18:57;26.20;38.00
71237;DHT22;58984;51.960;5.582;2023-06-14T01:21:24;26.20;38.10
71237;DHT22;58984;51.960;5.582;2023-06-14T01:23:51;26.20;38.20
71237;DHT22;58984;51.960;5.582;2023-06-14T01:26:19;26.20;38.20
71237;DHT22;58984;51.960;5.582;2023-06-14T01:28:45;26.20;38.30
71237;DHT22;58984;51.960;5.582;2023-06-14T01:31:17;26.10;38.20
71237;DHT22;58984;51.960;5.582;2023-06-14T01:33:43;26.10;38.40
71237;DHT22;58984;51.960;5.582;2023-06-14T01:36:09;26.10;38.40
71237;DHT22;58984;51.960;5.582;2023-06-14T01:38:36;26.10;38.40
71237;DHT22;58984;51.960;5.582;2023-06-14T01:41:03;26.00;38.40
71237;DHT22;58984;51.960;5.582;2023-06-14T01:43:31;26.10;38.40
71237;DHT22;58984;51.960;5.582;2023-06-14T01:45:57;26.00;38.40
71237;DHT22;58984;51.960;5.582;2023-06-14T01:48:23;26.00;38.40
71237;DHT22;58984;51.960;5.582;2023-06-14T01:50:49;26.00;38.40
71237;DHT22;58984;51.960;5.582;2023-06-14T01:53:15;26.00;38.40
71237;DHT22;58984;51.960;5.582;2023-06-14T01:55:41;25.90;38.30
71237;DHT22;58984;51.960;5.582;2023-06-14T01:58:09;25.90;38.90
71237;DHT22;58984;51.960;5.582;2023-06-14T02:00:35;25.90;38.30
71237;DHT22;58984;51.960;5.582;2023-06-14T02:03:01;25.90;38.40
71237;DHT22;58984;51.960;5.582;2023-06-14T02:05:27;25.90;38.40
71237;DHT22;58984;51.960;5.582;2023-06-14T02:07:53;25.90;38.50
71237;DHT22;58984;51.960;5.582;2023-06-14T02:10:19;25.80;38.40
71237;DHT22;58984;51.960;5.582;2023-06-14T02:12:44;25.80;38.50
71237;DHT22;58984;51.960;5.582;2023-06-14T02:15:11;25.80;38.60
71237;DHT22;58984;51.960;5.582;2023-06-14T02:17:43;25.80;38.60
71237;DHT22;58984;51.960;5.582;2023-06-14T02:20:09;25.80;38.60
71237;DHT22;58984;51.960;5.582;2023-06-14T02:22:35;25.80;39.30
71237;DHT22;58984;51.960;5.582;2023-06-14T02:25:00;25.70;38.60
71237;DHT22;58984;51.960;5.582;2023-06-14T02:27:26;25.70;38.70
71237;DHT22;58984;51.960;5.582;2023-06-14T02:29:51;25.70;38.70
71237;DHT22;58984;51.960;5.582;2023-06-14T02:32:17;25.70;38.70
71237;DHT22;58984;51.960;5.582;2023-06-14T02:34:43;25.60;38.70
71237;DHT22;58984;51.960;5.582;2023-06-14T02:37:08;25.60;38.70
71237;DHT22;58984;51.960;5.582;2023-06-14T02:39:34;25.70;38.70
71237;DHT22;58984;51.960;5.582;2023-06-14T02:42:00;25.60;38.80
71237;DHT22;58984;51.960;5.582;2023-06-14T02:44:26;25.60;38.80
71237;DHT22;58984;51.960;5.582;2023-06-14T02:46:56;25.60;38.80
71237;DHT22;58984;51.960;5.582;2023-06-14T02:49:22;25.60;38.80
71237;DHT22;58984;51.960;5.582;2023-06-14T02:51:48;25.50;38.80
71237;DHT22;58984;51.960;5.582;2023-06-14T02:54:13;25.50;38.80
71237;DHT22;58984;51.960;5.582;2023-06-14T02:56:39;25.50;38.80
71237;DHT22;58984;51.960;5.582;2023-06-14T02:59:06;25.50;38.90
71237;DHT22;58984;51.960;5.582;2023-06-14T03:01:32;25.50;38.90
71237;DHT22;58984;51.960;5.582;2023-06-14T03:04:09;25.50;39.00
71237;DHT22;58984;51.960;5.582;2023-06-14T03:06:35;25.50;39.00
71237;DHT22;58984;51.960;5.582;2023-06-14T03:09:01;25.50;39.10
71237;DHT22;58984;51.960;5.582;2023-06-14T03:11:30;25.40;39.00
71237;DHT22;58984;51.960;5.582;2023-06-14T03:13:56;25.40;39.00
71237;DHT22;58984;51.960;5.582;2023-06-14T03:16:22;25.40;39.00
71237;DHT22;58984;51.960;5.582;2023-06-14T03:18:51;25.40;39.00
71237;DHT22;58984;51.960;5.582;2023-06-14T03:21:20;25.30;39.10
71237;DHT22;58984;51.960;5.582;2023-06-14T03:23:46;25.30;39.10
71237;DHT22;58984;51.960;5.582;2023-06-14T03:26:12;25.30;39.10
71237;DHT22;58984;51.960;5.582;2023-06-14T03:28:46;25.30;39.10
71237;DHT22;58984;51.960;5.582;2023-06-14T03:31:13;25.30;39.50
71237;DHT22;58984;51.960;5.582;2023-06-14T03:33:39;25.30;39.20
71237;DHT22;58984;51.960;5.582;2023-06-14T03:36:05;25.20;39.10
71237;DHT22;58984;51.960;5.582;2023-06-14T03:38:31;25.20;39.20
71237;DHT22;58984;51.960;5.582;2023-06-14T03:40:56;25.20;39.20
71237;DHT22;58984;51.960;5.582;2023-06-14T03:43:22;25.20;39.20
71237;DHT22;58984;51.960;5.582;2023-06-14T03:45:47;25.20;39.30
71237;DHT22;58984;51.960;5.582;2023-06-14T03:48:13;25.20;39.30
71237;DHT22;58984;51.960;5.582;2023-06-14T03:50:39;25.20;39.30
71237;DHT22;58984;51.960;5.582;2023-06-14T03:53:05;25.10;39.30
71237;DHT22;58984;51.960;5.582;2023-06-14T03:55:30;25.10;39.30
71237;DHT22;58984;51.960;5.582;2023-06-14T03:57:57;25.10;39.40
71237;DHT22;58984;51.960;5.582;2023-06-14T04:00:22;25.10;39.40
71237;DHT22;58984;51.960;5.582;2023-06-14T04:02:48;25.10;39.50
71237;DHT22;58984;51.960;5.582;2023-06-14T04:05:14;25.00;39.50
71237;DHT22;58984;51.960;5.582;2023-06-14T04:07:42;25.10;39.50
71237;DHT22;58984;51.960;5.582;2023-06-14T04:10:11;25.00;39.50
71237;DHT22;58984;51.960;5.582;2023-06-14T04:12:37;25.00;39.50
71237;DHT22;58984;51.960;5.582;2023-06-14T04:15:03;25.00;39.60
71237;DHT22;58984;51.960;5.582;2023-06-14T04:17:32;25.00;39.70
71237;DHT22;58984;51.960;5.582;2023-06-14T04:19:59;24.90;39.60
71237;DHT22;58984;51.960;5.582;2023-06-14T04:22:25;24.90;39.70
71237;DHT22;58984;51.960;5.582;2023-06-14T04:24:54;25.00;39.80
71237;DHT22;58984;51.960;5.582;2023-06-14T04:27:22;24.90;39.80
71237;DHT22;58984;51.960;5.582;2023-06-14T04:29:54;24.90;39.80
71237;DHT22;58984;51.960;5.582;2023-06-14T04:32:25;24.90;39.90
71237;DHT22;58984;51.960;5.582;2023-06-14T04:34:53;24.90;39.90
71237;DHT22;58984;51.960;5.582;2023-06-14T04:37:20;24.90;40.00
71237;DHT22;58984;51.960;5.582;2023-06-14T04:39:47;24.90;40.10
71237;DHT22;58984;51.960;5.582;2023-06-14T04:42:12;24.90;40.10
71237;DHT22;58984;51.960;5.582;2023-06-14T04:44:42;24.80;40.20
71237;DHT22;58984;51.960;5.582;2023-06-14T04:47:11;24.80;40.20
71237;DHT22;58984;51.960;5.582;2023-06-14T04:49:38;24.90;40.30
71237;DHT22;58984;51.960;5.582;2023-06-14T04:52:06;24.80;40.30
71237;DHT22;58984;51.960;5.582;2023-06-14T04:54:32;24.80;40.40
71237;DHT22;58984;51.960;5.582;2023-06-14T04:56:59;24.80;40.40
71237;DHT22;58984;51.960;5.582;2023-06-14T04:59:24;24.80;40.50
71237;DHT22;58984;51.960;5.582;2023-06-14T05:01:50;24.80;40.50
71237;DHT22;58984;51.960;5.582;2023-06-14T05:04:19;24.80;40.60
71237;DHT22;58984;51.960;5.582;2023-06-14T05:06:46;24.70;40.60
71237;DHT22;58984;51.960;5.582;2023-06-14T05:09:15;24.80;40.70
71237;DHT22;58984;51.960;5.582;2023-06-14T05:11:42;24.70;40.70
71237;DHT22;58984;51.960;5.582;2023-06-14T05:14:11;24.70;40.80
71237;DHT22;58984;51.960;5.582;2023-06-14T05:16:37;24.70;40.80
71237;DHT22;58984;51.960;5.582;2023-06-14T05:19:03;24.70;40.90
71237;DHT22;58984;51.960;5.582;2023-06-14T05:21:30;24.70;40.90
71237;DHT22;58984;51.960;5.582;2023-06-14T05:23:55;24.70;41.00
71237;DHT22;58984;51.960;5.582;2023-06-14T05:26:21;24.70;41.10
71237;DHT22;58984;51.960;5.582;2023-06-14T05:28:49;24.70;41.10
71237;DHT22;58984;51.960;5.582;2023-06-14T05:31:15;24.60;41.00
71237;DHT22;58984;51.960;5.582;2023-06-14T05:33:41;24.70;41.20
71237;DHT22;58984;51.960;5.582;2023-06-14T05:36:06;24.70;41.20
71237;DHT22;58984;51.960;5.582;2023-06-14T05:38:32;24.70;41.20
71237;DHT22;58984;51.960;5.582;2023-06-14T05:40:58;24.60;41.20
71237;DHT22;58984;51.960;5.582;2023-06-14T05:43:24;24.70;41.30
71237;DHT22;58984;51.960;5.582;2023-06-14T05:45:50;24.60;41.30
71237;DHT22;58984;51.960;5.582;2023-06-14T05:48:16;24.60;41.30
71237;DHT22;58984;51.960;5.582;2023-06-14T05:50:41;24.60;41.30
71237;DHT22;58984;51.960;5.582;2023-06-14T05:53:07;24.60;41.40
71237;DHT22;58984;51.960;5.582;2023-06-14T05:55:32;24.60;41.40
71237;DHT22;58984;51.960;5.582;2023-06-14T05:57:58;24.60;41.40
71237;DHT22;58984;51.960;5.582;2023-06-14T06:00:24;24.60;41.40
71237;DHT22;58984;51.960;5.582;2023-06-14T06:02:49;24.60;41.50
71237;DHT22;58984;51.960;5.582;2023-06-14T06:05:15;24.60;42.20
71237;DHT22;58984;51.960;5.582;2023-06-14T06:07:41;24.60;41.50
71237;DHT22;58984;51.960;5.582;2023-06-14T06:10:07;24.60;41.50
71237;DHT22;58984;51.960;5.582;2023-06-14T06:12:33;24.60;41.60
71237;DHT22;58984;51.960;5.582;2023-06-14T06:14:59;24.60;41.60
71237;DHT22;58984;51.960;5.582;2023-06-14T06:17:25;24.60;41.60
71237;DHT22;58984;51.960;5.582;2023-06-14T06:19:51;24.60;41.70
71237;DHT22;58984;51.960;5.582;2023-06-14T06:22:17;24.60;41.70
71237;DHT22;58984;51.960;5.582;2023-06-14T06:24:43;24.60;41.70
71237;DHT22;58984;51.960;5.582;2023-06-14T06:27:08;24.60;41.70
71237;DHT22;58984;51.960;5.582;2023-06-14T06:29:35;24.60;41.70
71237;DHT22;58984;51.960;5.582;2023-06-14T06:32:00;24.60;41.70
71237;DHT22;58984;51.960;5.582;2023-06-14T06:34:26;24.60;41.70
71237;DHT22;58984;51.960;5.582;2023-06-14T06:36:52;24.60;41.70
71237;DHT22;58984;51.960;5.582;2023-06-14T06:39:18;24.60;41.70
71237;DHT22;58984;51.960;5.582;2023-06-14T06:41:43;24.70;42.50
71237;DHT22;58984;51.960;5.582;2023-06-14T06:44:09;24.70;41.90
71237;DHT22;58984;51.960;5.582;2023-06-14T06:46:38;24.70;41.90
71237;DHT22;58984;51.960;5.582;2023-06-14T06:49:06;24.70;42.00
71237;DHT22;58984;51.960;5.582;2023-06-14T06:51:32;24.70;42.10
71237;DHT22;58984;51.960;5.582;2023-06-14T06:53:58;24.70;42.10
71237;DHT22;58984;51.960;5.582;2023-06-14T06:56:23;24.80;42.20
71237;DHT22;58984;51.960;5.582;2023-06-14T06:58:50;24.80;42.20
71237;DHT22;58984;51.960;5.582;2023-06-14T07:01:16;24.80;42.20
71237;DHT22;58984;51.960;5.582;2023-06-14T07:03:42;24.80;42.30
71237;DHT22;58984;51.960;5.582;2023-06-14T07:06:08;24.80;42.30
71237;DHT22;58984;51.960;5.582;2023-06-14T07:08:34;24.90;42.40
71237;DHT22;58984;51.960;5.582;2023-06-14T07:11:00;24.90;42.40
71237;DHT22;58984;51.960;5.582;2023-06-14T07:13:25;24.90;42.40
71237;DHT22;58984;51.960;5.582;2023-06-14T07:15:54;24.90;42.40
71237;DHT22;58984;51.960;5.582;2023-06-14T07:18:20;24.90;42.60
71237;DHT22;58984;51.960;5.582;2023-06-14T07:20:46;24.90;43.10
71237;DHT22;58984;51.960;5.582;2023-06-14T07:23:12;24.90;42.60
71237;DHT22;58984;51.960;5.582;2023-06-14T07:25:38;25.00;42.60
71237;DHT22;58984;51.960;5.582;2023-06-14T07:28:05;25.00;43.30
71237;DHT22;58984;51.960;5.582;2023-06-14T07:30:30;25.00;42.60
71237;DHT22;58984;51.960;5.582;2023-06-14T07:32:56;25.10;42.70
71237;DHT22;58984;51.960;5.582;2023-06-14T07:35:22;25.10;42.70
71237;DHT22;58984;51.960;5.582;2023-06-14T07:37:48;25.10;42.80
71237;DHT22;58984;51.960;5.582;2023-06-14T07:40:13;25.10;42.80
71237;DHT22;58984;51.960;5.582;2023-06-14T07:42:39;25.20;42.90
71237;DHT22;58984;51.960;5.582;2023-06-14T07:45:05;25.20;42.90
71237;DHT22;58984;51.960;5.582;2023-06-14T07:47:32;25.20;42.90
71237;DHT22;58984;51.960;5.582;2023-06-14T07:49:57;25.30;43.00
71237;DHT22;58984;51.960;5.582;2023-06-14T07:52:23;25.30;43.00
71237;DHT22;58984;51.960;5.582;2023-06-14T07:54:48;25.30;43.00
71237;DHT22;58984;51.960;5.582;2023-06-14T07:57:14;25.40;42.50
71237;DHT22;58984;51.960;5.582;2023-06-14T07:59:40;25.40;42.50
71237;DHT22;58984;51.960;5.582;2023-06-14T08:02:06;25.50;42.60
71237;DHT22;58984;51.960;5.582;2023-06-14T08:04:32;25.50;42.60
71237;DHT22;58984;51.960;5.582;2023-06-14T08:06:59;25.50;42.70
71237;DHT22;58984;51.960;5.582;2023-06-14T08:09:24;25.50;42.70
71237;DHT22;58984;51.960;5.582;2023-06-14T08:11:50;25.60;42.80
71237;DHT22;58984;51.960;5.582;2023-06-14T08:14:16;25.70;42.80
71237;DHT22;58984;51.960;5.582;2023-06-14T08:16:42;25.70;42.80
71237;DHT22;58984;51.960;5.582;2023-06-14T08:19:07;25.70;42.80
71237;DHT22;58984;51.960;5.582;2023-06-14T08:21:33;25.80;42.80
71237;DHT22;58984;51.960;5.582;2023-06-14T08:23:59;25.80;42.80
71237;DHT22;58984;51.960;5.582;2023-06-14T08:26:25;25.90;42.80
71237;DHT22;58984;51.960;5.582;2023-06-14T08:28:54;25.90;42.80
71237;DHT22;58984;51.960;5.582;2023-06-14T08:31:20;25.90;42.80
71237;DHT22;58984;51.960;5.582;2023-06-14T08:33:46;26.00;42.80
71237;DHT22;58984;51.960;5.582;2023-06-14T08:36:12;26.00;42.80
71237;DHT22;58984;51.960;5.582;2023-06-14T08:38:38;26.10;42.90
71237;DHT22;58984;51.960;5.582;2023-06-14T08:41:05;26.10;42.90
71237;DHT22;58984;51.960;5.582;2023-06-14T08:43:34;26.20;42.90
71237;DHT22;58984;51.960;5.582;2023-06-14T08:46:04;26.20;42.90
71237;DHT22;58984;51.960;5.582;2023-06-14T08:48:31;26.20;43.00
71237;DHT22;58984;51.960;5.582;2023-06-14T08:51:00;26.30;43.00
71237;DHT22;58984;51.960;5.582;2023-06-14T08:53:33;26.30;42.90
71237;DHT22;58984;51.960;5.582;2023-06-14T08:56:03;26.40;43.00
71237;DHT22;58984;51.960;5.582;2023-06-14T08:58:33;26.40;43.10
71237;DHT22;58984;51.960;5.582;2023-06-14T09:01:02;26.50;43.00
71237;DHT22;58984;51.960;5.582;2023-06-14T09:03:28;26.60;43.00
71237;DHT22;58984;51.960;5.582;2023-06-14T09:05:57;26.60;42.90
71237;DHT22;58984;51.960;5.582;2023-06-14T09:08:25;26.70;43.00
71237;DHT22;58984;51.960;5.582;2023-06-14T09:10:50;26.70;43.00
71237;DHT22;58984;51.960;5.582;2023-06-14T09:13:17;26.80;43.00
71237;DHT22;58984;51.960;5.582;2023-06-14T09:15:43;26.80;43.00
71237;DHT22;58984;51.960;5.582;2023-06-14T09:18:09;26.90;42.90
71237;DHT22;58984;51.960;5.582;2023-06-14T09:20:34;26.90;42.90
71237;DHT22;58984;51.960;5.582;2023-06-14T09:23:01;27.00;43.00
71237;DHT22;58984;51.960;5.582;2023-06-14T09:25:26;27.00;42.90
71237;DHT22;58984;51.960;5.582;2023-06-14T09:27:52;27.10;42.80
71237;DHT22;58984;51.960;5.582;2023-06-14T09:30:20;27.10;42.70
71237;DHT22;58984;51.960;5.582;2023-06-14T09:32:46;27.10;42.80
71237;DHT22;58984;51.960;5.582;2023-06-14T09:35:11;27.20;42.80
71237;DHT22;58984;51.960;5.582;2023-06-14T09:37:37;27.30;42.50
71237;DHT22;58984;51.960;5.582;2023-06-14T09:40:04;27.30;42.50
71237;DHT22;58984;51.960;5.582;2023-06-14T09:42:31;27.30;42.40
71237;DHT22;58984;51.960;5.582;2023-06-14T09:44:57;27.40;42.60
71237;DHT22;58984;51.960;5.582;2023-06-14T09:47:25;27.40;42.60
71237;DHT22;58984;51.960;5.582;2023-06-14T09:49:51;27.50;42.60
71237;DHT22;58984;51.960;5.582;2023-06-14T09:52:20;27.50;42.70
71237;DHT22;58984;51.960;5.582;2023-06-14T09:54:47;27.60;42.60
71237;DHT22;58984;51.960;5.582;2023-06-14T09:57:16;27.60;42.60
71237;DHT22;58984;51.960;5.582;2023-06-14T09:59:44;27.70;42.60
71237;DHT22;58984;51.960;5.582;2023-06-14T10:02:35;27.70;42.50
71237;DHT22;58984;51.960;5.582;2023-06-14T10:05:09;27.70;42.70
71237;DHT22;58984;51.960;5.582;2023-06-14T10:07:51;27.80;42.40
71237;DHT22;58984;51.960;5.582;2023-06-14T10:10:17;27.80;42.40
71237;DHT22;58984;51.960;5.582;2023-06-14T10:12:44;28.00;42.10
71237;DHT22;58984;51.960;5.582;2023-06-14T10:15:15;28.00;42.10
71237;DHT22;58984;51.960;5.582;2023-06-14T10:17:50;28.00;42.10
71237;DHT22;58984;51.960;5.582;2023-06-14T10:20:41;28.00;42.30
71237;DHT22;58984;51.960;5.582;2023-06-14T10:23:21;28.00;42.40
71237;DHT22;58984;51.960;5.582;2023-06-14T10:25:55;28.10;42.40
71237;DHT22;58984;51.960;5.582;2023-06-14T10:28:22;28.20;42.50
71237;DHT22;58984;51.960;5.582;2023-06-14T10:33:48;28.30;42.70
71237;DHT22;58984;51.960;5.582;2023-06-14T10:36:31;28.40;42.60
71237;DHT22;58984;51.960;5.582;2023-06-14T10:39:00;28.30;42.60
71237;DHT22;58984;51.960;5.582;2023-06-14T10:41:27;28.40;42.50
71237;DHT22;58984;51.960;5.582;2023-06-14T10:46:36;28.40;42.60
71237;DHT22;58984;51.960;5.582;2023-06-14T10:49:01;28.60;42.60
71237;DHT22;58984;51.960;5.582;2023-06-14T10:51:29;28.60;42.60
71237;DHT22;58984;51.960;5.582;2023-06-14T10:53:57;28.60;42.20
71237;DHT22;58984;51.960;5.582;2023-06-14T10:56:28;28.70;42.90
71237;DHT22;58984;51.960;5.582;2023-06-14T10:58:54;28.70;42.40
71237;DHT22;58984;51.960;5.582;2023-06-14T11:01:31;28.80;42.40
71237;DHT22;58984;51.960;5.582;2023-06-14T11:04:07;28.80;42.50
71237;DHT22;58984;51.960;5.582;2023-06-14T11:06:54;28.80;42.60
71237;DHT22;58984;51.960;5.582;2023-06-14T11:09:51;28.80;42.30
71237;DHT22;58984;51.960;5.582;2023-06-14T11:12:24;28.90;42.50
71237;DHT22;58984;51.960;5.582;2023-06-14T11:14:51;29.00;42.40
71237;DHT22;58984;51.960;5.582;2023-06-14T11:17:17;29.00;42.20
71237;DHT22;58984;51.960;5.582;2023-06-14T11:19:44;29.00;42.40
71237;DHT22;58984;51.960;5.582;2023-06-14T11:22:10;29.10;42.20
71237;DHT22;58984;51.960;5.582;2023-06-14T11:24:35;29.10;42.00
71237;DHT22;58984;51.960;5.582;2023-06-14T11:27:01;29.20;42.10
71237;DHT22;58984;51.960;5.582;2023-06-14T11:29:29;29.20;42.10
71237;DHT22;58984;51.960;5.582;2023-06-14T11:31:54;29.20;42.20
71237;DHT22;58984;51.960;5.582;2023-06-14T11:34:20;29.20;42.00
71237;DHT22;58984;51.960;5.582;2023-06-14T11:36:46;29.30;42.10
71237;DHT22;58984;51.960;5.582;2023-06-14T11:39:12;29.30;42.10
71237;DHT22;58984;51.960;5.582;2023-06-14T11:41:42;29.30;41.90
71237;DHT22;58984;51.960;5.582;2023-06-14T11:44:09;29.30;42.00
71237;DHT22;58984;51.960;5.582;2023-06-14T11:46:35;29.40;42.60
71237;DHT22;58984;51.960;5.582;2023-06-14T11:49:01;29.40;42.00
71237;DHT22;58984;51.960;5.582;2023-06-14T11:51:33;29.50;41.90
71237;DHT22;58984;51.960;5.582;2023-06-14T11:53:59;29.50;41.80
71237;DHT22;58984;51.960;5.582;2023-06-14T11:56:25;29.50;41.70
71237;DHT22;58984;51.960;5.582;2023-06-14T11:58:52;29.60;41.90
71237;DHT22;58984;51.960;5.582;2023-06-14T12:01:21;29.60;41.60
71237;DHT22;58984;51.960;5.582;2023-06-14T12:03:50;29.60;41.80
71237;DHT22;58984;51.960;5.582;2023-06-14T12:06:17;29.60;41.60
71237;DHT22;58984;51.960;5.582;2023-06-14T12:08:50;29.70;41.70
71237;DHT22;58984;51.960;5.582;2023-06-14T12:11:16;29.70;41.70
71237;DHT22;58984;51.960;5.582;2023-06-14T12:13:42;29.70;41.50
71237;DHT22;58984;51.960;5.582;2023-06-14T12:16:10;29.80;41.50
71237;DHT22;58984;51.960;5.582;2023-06-14T12:18:37;29.80;41.30
71237;DHT22;58984;51.960;5.582;2023-06-14T12:21:04;29.70;41.30
71237;DHT22;58984;51.960;5.582;2023-06-14T12:26:07;29.70;41.40
71237;DHT22;58984;51.960;5.582;2023-06-14T12:28:33;29.80;41.50
71237;DHT22;58984;51.960;5.582;2023-06-14T12:30:59;29.90;41.40
71237;DHT22;58984;51.960;5.582;2023-06-14T12:33:24;29.80;41.30
71237;DHT22;58984;51.960;5.582;2023-06-14T12:35:51;29.90;41.30
71237;DHT22;58984;51.960;5.582;2023-06-14T12:38:16;30.00;41.00
71237;DHT22;58984;51.960;5.582;2023-06-14T12:40:42;29.90;41.00
71237;DHT22;58984;51.960;5.582;2023-06-14T12:43:08;29.90;41.00
71237;DHT22;58984;51.960;5.582;2023-06-14T12:45:33;30.00;41.20
71237;DHT22;58984;51.960;5.582;2023-06-14T12:47:59;30.00;41.10
71237;DHT22;58984;51.960;5.582;2023-06-14T12:50:24;30.00;41.00
71237;DHT22;58984;51.960;5.582;2023-06-14T12:52:50;30.00;40.90
71237;DHT22;58984;51.960;5.582;2023-06-14T12:55:16;30.00;40.90
71237;DHT22;58984;51.960;5.582;2023-06-14T12:57:41;30.00;40.90
71237;DHT22;58984;51.960;5.582;2023-06-14T13:00:07;30.10;40.90
71237;DHT22;58984;51.960;5.582;2023-06-14T13:02:33;30.00;40.90
71237;DHT22;58984;51.960;5.582;2023-06-14T13:04:59;30.00;41.30
71237;DHT22;58984;51.960;5.582;2023-06-14T13:07:25;30.10;40.50
71237;DHT22;58984;51.960;5.582;2023-06-14T13:09:51;30.00;40.80
71237;DHT22;58984;51.960;5.582;2023-06-14T13:12:16;30.00;40.40
71237;DHT22;58984;51.960;5.582;2023-06-14T13:14:42;30.00;40.10
71237;DHT22;58984;51.960;5.582;2023-06-14T13:17:09;30.00;40.00
71237;DHT22;58984;51.960;5.582;2023-06-14T13:19:35;30.00;40.00
71237;DHT22;58984;51.960;5.582;2023-06-14T13:22:00;30.10;40.10
71237;DHT22;58984;51.960;5.582;2023-06-14T13:24:26;30.10;40.20
71237;DHT22;58984;51.960;5.582;2023-06-14T13:26:52;30.10;40.10
71237;DHT22;58984;51.960;5.582;2023-06-14T13:29:17;30.10;40.00
71237;DHT22;58984;51.960;5.582;2023-06-14T13:31:43;30.10;40.30
71237;DHT22;58984;51.960;5.582;2023-06-14T13:34:08;30.00;40.30
71237;DHT22;58984;51.960;5.582;2023-06-14T13:36:34;30.10;40.10
71237;DHT22;58984;51.960;5.582;2023-06-14T13:39:00;30.10;40.20
71237;DHT22;58984;51.960;5.582;2023-06-14T13:41:27;30.10;40.30
71237;DHT22;58984;51.960;5.582;2023-06-14T13:43:59;30.10;40.10
71237;DHT22;58984;51.960;5.582;2023-06-14T13:46:25;30.00;40.00
71237;DHT22;58984;51.960;5.582;2023-06-14T13:48:51;30.00;40.00
71237;DHT22;58984;51.960;5.582;2023-06-14T13:51:17;30.00;39.80
71237;DHT22;58984;51.960;5.582;2023-06-14T13:53:49;30.00;40.00
71237;DHT22;58984;51.960;5.582;2023-06-14T13:56:16;30.00;39.80
71237;DHT22;58984;51.960;5.582;2023-06-14T13:58:42;30.10;39.80
71237;DHT22;58984;51.960;5.582;2023-06-14T14:01:08;30.00;39.90
71237;DHT22;58984;51.960;5.582;2023-06-14T14:03:34;30.00;40.20
71237;DHT22;58984;51.960;5.582;2023-06-14T14:06:01;30.10;40.00
71237;DHT22;58984;51.960;5.582;2023-06-14T14:08:27;30.00;39.70
71237;DHT22;58984;51.960;5.582;2023-06-14T14:10:53;30.00;39.90
71237;DHT22;58984;51.960;5.582;2023-06-14T14:13:19;30.00;36.80
71237;DHT22;58984;51.960;5.582;2023-06-14T14:15:44;30.00;35.30
71237;DHT22;58984;51.960;5.582;2023-06-14T14:18:10;30.00;36.70
71237;DHT22;58984;51.960;5.582;2023-06-14T14:20:35;30.00;37.20
71237;DHT22;58984;51.960;5.582;2023-06-14T14:23:01;30.00;37.50
71237;DHT22;58984;51.960;5.582;2023-06-14T14:25:27;30.00;37.90
71237;DHT22;58984;51.960;5.582;2023-06-14T14:27:53;29.90;35.20
71237;DHT22;58984;51.960;5.582;2023-06-14T14:30:19;29.80;35.40
71237;DHT22;58984;51.960;5.582;2023-06-14T14:32:51;29.80;36.10
71237;DHT22;58984;51.960;5.582;2023-06-14T14:35:18;29.80;36.60
71237;DHT22;58984;51.960;5.582;2023-06-14T14:37:44;29.80;37.00
71237;DHT22;58984;51.960;5.582;2023-06-14T14:40:11;29.80;37.30
71237;DHT22;58984;51.960;5.582;2023-06-14T14:42:36;29.80;37.50
71237;DHT22;58984;51.960;5.582;2023-06-14T14:45:02;29.80;37.50
71237;DHT22;58984;51.960;5.582;2023-06-14T14:47:28;29.80;38.10
71237;DHT22;58984;51.960;5.582;2023-06-14T14:49:55;29.80;37.80
71237;DHT22;58984;51.960;5.582;2023-06-14T14:52:20;29.70;38.00
71237;DHT22;58984;51.960;5.582;2023-06-14T14:54:46;29.70;38.00
71237;DHT22;58984;51.960;5.582;2023-06-14T14:57:11;29.70;38.00
71237;DHT22;58984;51.960;5.582;2023-06-14T14:59:37;29.70;38.20
71237;DHT22;58984;51.960;5.582;2023-06-14T15:02:02;29.70;38.10
71237;DHT22;58984;51.960;5.582;2023-06-14T15:04:28;29.70;38.30
71237;DHT22;58984;51.960;5.582;2023-06-14T15:06:54;29.70;38.50
71237;DHT22;58984;51.960;5.582;2023-06-14T15:09:19;29.70;38.50
71237;DHT22;58984;51.960;5.582;2023-06-14T15:11:45;29.70;38.30
71237;DHT22;58984;51.960;5.582;2023-06-14T15:14:11;29.70;38.20
71237;DHT22;58984;51.960;5.582;2023-06-14T15:16:37;29.70;38.40
71237;DHT22;58984;51.960;5.582;2023-06-14T15:19:02;29.60;38.70
71237;DHT22;58984;51.960;5.582;2023-06-14T15:21:28;29.60;38.90
71237;DHT22;58984;51.960;5.582;2023-06-14T15:23:55;29.60;39.00
71237;DHT22;58984;51.960;5.582;2023-06-14T15:26:21;29.60;39.00
71237;DHT22;58984;51.960;5.582;2023-06-14T15:28:49;29.60;38.90
71237;DHT22;58984;51.960;5.582;2023-06-14T15:31:14;29.60;38.90
71237;DHT22;58984;51.960;5.582;2023-06-14T15:33:40;29.60;38.60
71237;DHT22;58984;51.960;5.582;2023-06-14T15:36:06;29.60;38.70
71237;DHT22;58984;51.960;5.582;2023-06-14T15:38:34;29.60;38.80